createdAt,value
2022-08-21T00:06:13.910Z,27.06
2022-08-21T00:12:47.051Z,27.09
2022-08-21T00:19:22.145Z,27.14
2022-08-21T00:25:52.166Z,27.19
2022-08-21T00:32:23.129Z,27.13
2022-08-21T00:39:01.039Z,27.26
2022-08-21T00:45:36.725Z,27.31
2022-08-21T00:52:10.156Z,27.48
2022-08-21T00:58:58.173Z,27.4
2022-08-21T01:05:45.190Z,27.39
2022-08-21T01:12:16.737Z,27.43
2022-08-21T01:18:56.983Z,27.34
2022-08-21T01:25:31.952Z,27.33
2022-08-21T01:32:08.173Z,27.3
2022-08-21T01:38:40.483Z,27.27
2022-08-21T01:45:06.167Z,27.26
2022-08-21T01:51:38.200Z,27.27
2022-08-21T01:58:05.256Z,27.24
2022-08-21T02:04:43.299Z,27.26
2022-08-21T02:11:10.452Z,27.33
2022-08-21T02:17:49.444Z,27.37
2022-08-21T02:24:31.224Z,27.41
2022-08-21T02:31:01.980Z,27.41
2022-08-21T02:37:38.237Z,27.35
2022-08-21T02:44:19.260Z,27.3
2022-08-21T02:50:47.216Z,27.26
2022-08-21T02:57:17.200Z,27.28
2022-08-21T03:03:51.510Z,27.28
2022-08-21T03:10:19.199Z,27.29
2022-08-21T03:16:59.253Z,27.28
2022-08-21T03:23:31.829Z,27.25
2022-08-21T03:30:06.242Z,27.25
2022-08-21T03:36:43.203Z,27.26
2022-08-21T03:43:07.695Z,27.27
2022-08-21T03:49:46.248Z,27.23
2022-08-21T03:56:19.271Z,27.21
2022-08-21T04:02:56.177Z,27.24
2022-08-21T04:09:38.205Z,27.25
2022-08-21T04:16:11.490Z,27.26
2022-08-21T04:22:43.308Z,27.25
2022-08-21T04:29:19.261Z,27.28
2022-08-21T04:35:54.143Z,27.29
2022-08-21T04:42:23.574Z,27.26
2022-08-21T04:49:23.574Z,27.27
2022-08-21T04:56:26.476Z,27.25
2022-08-21T05:03:09.160Z,27.24
2022-08-21T05:09:47.510Z,27.25
2022-08-21T05:16:30.250Z,27.32
2022-08-21T05:23:00.715Z,27.3
2022-08-21T05:29:37.294Z,27.26
2022-08-21T05:36:15.734Z,27.25
2022-08-21T05:42:39.121Z,27.27
2022-08-21T05:49:10.300Z,27.24
2022-08-21T05:55:45.088Z,27.25
2022-08-21T06:02:10.260Z,27.25
2022-08-21T06:08:48.315Z,27.28
2022-08-21T06:15:13.715Z,27.26
2022-08-21T06:21:44.760Z,27.28
2022-08-21T06:28:10.256Z,27.26
2022-08-21T06:34:41.229Z,27.29
2022-08-21T06:41:10.187Z,27.27
2022-08-21T06:47:41.236Z,27.28
2022-08-21T06:54:11.264Z,27.31
2022-08-21T07:00:42.595Z,27.3
2022-08-21T07:07:11.264Z,27.26
2022-08-21T07:13:47.245Z,27.27
2022-08-21T07:20:14.129Z,27.28
2022-08-21T07:26:53.510Z,27.3
2022-08-21T07:33:31.335Z,27.28
2022-08-21T07:40:12.174Z,27.31
2022-08-21T07:46:40.248Z,27.3
2022-08-21T07:53:13.284Z,27.32
2022-08-21T07:59:43.288Z,27.3
2022-08-21T08:06:18.329Z,27.32
2022-08-21T08:12:56.350Z,27.34
2022-08-21T08:19:37.227Z,27.35
2022-08-21T08:26:12.220Z,27.55
2022-08-21T08:32:43.382Z,27.51
2022-08-21T08:39:11.304Z,27.45
2022-08-21T08:46:27.384Z,27.48
2022-08-21T08:53:39.460Z,27.5
2022-08-21T09:00:33.655Z,27.45
2022-08-21T09:07:14.678Z,27.48
2022-08-21T09:14:32.285Z,27.49
2022-08-21T09:21:41.244Z,27.51
2022-08-21T09:28:45.373Z,27.57
2022-08-21T09:35:42.527Z,27.66
2022-08-21T09:42:47.416Z,27.59
2022-08-21T09:49:26.363Z,27.67
2022-08-21T09:56:17.330Z,27.55
2022-08-21T10:03:12.950Z,27.47
2022-08-21T10:09:56.400Z,27.55
2022-08-21T10:16:54.472Z,27.5
2022-08-21T10:24:20.016Z,27.4
2022-08-21T10:31:34.572Z,27.44
2022-08-21T10:38:52.990Z,27.43
2022-08-21T10:46:08.398Z,27.42
2022-08-21T10:53:17.427Z,27.45
2022-08-21T11:00:15.617Z,27.43
2022-08-21T11:07:33.329Z,27.46
2022-08-21T11:14:53.382Z,27.46
2022-08-21T11:21:57.551Z,27.48
2022-08-21T11:29:02.348Z,27.54
2022-08-21T11:36:07.477Z,27.56
2022-08-21T11:43:20.348Z,27.54
2022-08-21T11:50:34.196Z,27.64
2022-08-21T11:57:33.416Z,27.64
2022-08-21T12:04:46.968Z,27.78
2022-08-21T12:11:47.814Z,27.74
2022-08-21T12:18:53.020Z,27.76
2022-08-21T12:26:17.555Z,27.8
2022-08-21T12:33:31.342Z,27.8
2022-08-21T12:40:42.503Z,27.87
2022-08-21T12:47:59.977Z,27.84
2022-08-21T12:55:21.442Z,27.81
2022-08-21T13:02:41.846Z,27.82
2022-08-21T13:09:56.872Z,27.88
2022-08-21T13:17:02.721Z,27.94
2022-08-21T13:23:44.982Z,27.99
2022-08-21T13:30:39.352Z,28.03
2022-08-21T13:37:25.818Z,28.11
2022-08-21T13:44:14.318Z,28.13
2022-08-21T13:51:12.495Z,28.18
2022-08-21T13:57:53.061Z,28.29
2022-08-21T14:05:06.596Z,28.44
2022-08-21T14:12:04.577Z,28.6
2022-08-21T14:19:31.638Z,28.62
2022-08-21T14:26:35.785Z,28.8
2022-08-21T14:33:27.561Z,28.88
2022-08-21T14:40:03.992Z,28.95
2022-08-21T14:46:45.870Z,28.83
2022-08-21T14:53:25.531Z,28.74
2022-08-21T14:59:56.241Z,28.96
2022-08-21T15:06:34.413Z,29.13
2022-08-21T15:12:55.581Z,29.2
2022-08-21T15:19:29.112Z,29.06
2022-08-21T15:26:02.944Z,29
2022-08-21T15:32:35.926Z,28.78
2022-08-21T15:39:11.437Z,28.59
2022-08-21T15:45:44.085Z,28.69
2022-08-21T15:52:10.562Z,28.57
2022-08-21T15:58:51.564Z,28.49
2022-08-21T16:05:42.585Z,28.39
2022-08-21T16:12:10.817Z,28.23
2022-08-21T16:19:03.893Z,28.24
2022-08-21T16:25:38.618Z,28.15
2022-08-21T16:32:14.656Z,28.09
2022-08-21T16:38:46.720Z,28.02
2022-08-21T16:45:20.607Z,27.85
2022-08-21T16:51:44.461Z,27.76
2022-08-21T16:58:15.607Z,27.83
2022-08-21T17:04:56.197Z,27.73
2022-08-21T17:11:36.556Z,27.6
2022-08-21T17:18:15.537Z,27.5
2022-08-21T17:24:51.676Z,27.44
2022-08-21T17:31:32.539Z,27.51
2022-08-21T17:38:01.629Z,27.43
2022-08-21T17:44:46.433Z,27.46
2022-08-21T17:51:15.668Z,27.3
2022-08-21T17:57:45.178Z,27.38
2022-08-21T18:04:20.004Z,27.26
2022-08-21T18:10:45.247Z,27.21
2022-08-21T18:17:22.646Z,27.29
2022-08-21T18:23:57.037Z,27.38
2022-08-21T18:30:34.734Z,27.27
2022-08-21T18:37:20.738Z,27.15
2022-08-21T18:43:53.756Z,27.25
2022-08-21T18:50:29.541Z,27.18
2022-08-21T18:57:05.410Z,27.04
2022-08-21T19:03:43.705Z,26.98
2022-08-21T19:10:24.127Z,26.93
2022-08-21T19:16:57.313Z,27.04
2022-08-21T19:23:29.075Z,26.98
2022-08-21T19:30:13.418Z,27.02
2022-08-21T19:36:48.569Z,27.03
2022-08-21T19:43:13.571Z,27.15
2022-08-21T19:49:53.579Z,27
2022-08-21T19:56:24.599Z,27.12
2022-08-21T20:03:00.984Z,27.01
2022-08-21T20:09:30.945Z,26.96
2022-08-21T20:16:10.826Z,27.03
2022-08-21T20:22:40.152Z,26.92
2022-08-21T20:29:05.606Z,26.87
2022-08-21T20:35:31.741Z,26.84
2022-08-21T20:42:00.222Z,26.83
2022-08-21T20:48:49.023Z,26.83
2022-08-21T20:55:51.755Z,26.81
2022-08-21T21:02:51.760Z,26.85
2022-08-21T21:09:50.974Z,26.85
2022-08-21T21:17:05.614Z,27.11
2022-08-21T21:24:50.742Z,27.08
2022-08-21T21:32:07.935Z,27.15
2022-08-21T21:39:19.112Z,27.21
2022-08-21T21:46:24.053Z,27.22
2022-08-21T21:53:29.719Z,27.21
2022-08-21T22:00:39.638Z,27.22
2022-08-21T22:07:53.071Z,27.25
2022-08-21T22:14:56.914Z,27.27
2022-08-21T22:22:13.646Z,27.3
2022-08-21T22:29:16.678Z,27.3
2022-08-21T22:36:09.671Z,27.3
2022-08-21T22:43:07.800Z,27.3
2022-08-21T22:50:24.128Z,27.3
2022-08-21T22:57:21.918Z,27.33
2022-08-21T23:04:24.152Z,27.28
2022-08-21T23:11:15.840Z,27.3
2022-08-21T23:18:20.038Z,27.3
2022-08-21T23:25:09.902Z,27.29
2022-08-21T23:32:15.471Z,27.32
2022-08-21T23:39:22.819Z,27.32
2022-08-21T23:46:32.471Z,27.39
2022-08-21T23:53:50.289Z,27.31
